createdAt,value
2023-03-02T00:00:31.504Z,44.2
2023-03-02T00:01:44.856Z,44.3
2023-03-02T00:02:48.615Z,44.3
2023-03-02T00:04:01.504Z,44.2
2023-03-02T00:05:08.049Z,44.3
2023-03-02T00:06:21.998Z,44.3
2023-03-02T00:07:35.534Z,44.3
2023-03-02T00:08:39.484Z,44.2
2023-03-02T00:10:02.809Z,44.2
2023-03-02T00:11:05.547Z,44.3
2023-03-02T00:12:09.024Z,44.3
2023-03-02T00:13:21.718Z,44.2
2023-03-02T00:14:55.072Z,44.3
2023-03-02T00:15:38.037Z,44.2
2023-03-02T00:16:50.831Z,44.3
2023-03-02T00:18:04.520Z,44.2
2023-03-02T00:19:17.214Z,44.2
2023-03-02T00:20:20.581Z,44.2
2023-03-02T00:21:33.256Z,44.3
2023-03-02T00:22:47.048Z,44.2
2023-03-02T00:23:49.758Z,44.2
2023-03-02T00:25:03.146Z,44.2
2023-03-02T00:26:15.836Z,44.2
2023-03-02T00:27:29.560Z,44.2
2023-03-02T00:28:41.764Z,44.2
2023-03-02T00:29:45.558Z,44.3
2023-03-02T00:30:58.330Z,44.2
2023-03-02T00:32:02.060Z,44.2
2023-03-02T00:33:14.885Z,44.3
2023-03-02T00:34:28.592Z,44.3
2023-03-02T00:35:31.430Z,44.2
2023-03-02T00:36:45.036Z,44.3
2023-03-02T00:37:57.814Z,44.3
2023-03-02T00:39:01.575Z,44.3
2023-03-02T00:40:14.294Z,44.3
2023-03-02T00:41:28.074Z,44.3
2023-03-02T00:42:30.943Z,44.3
2023-03-02T00:43:44.530Z,44.3
2023-03-02T00:44:57.244Z,44.3
2023-03-02T00:46:10.561Z,44.3
2023-03-02T00:47:13.509Z,44.3
2023-03-02T00:48:27.046Z,44.3
2023-03-02T00:49:39.756Z,44.3
2023-03-02T00:50:43.559Z,44.3
2023-03-02T00:51:56.266Z,44.3
2023-03-02T00:54:26.947Z,44.4
2023-03-02T00:55:29.685Z,44.4
2023-03-02T00:56:43.099Z,44.3
2023-03-02T00:57:45.842Z,44.3
2023-03-02T00:58:59.549Z,44.3
2023-03-02T01:00:12.240Z,44.3
2023-03-02T01:01:17.650Z,44.3
2023-03-02T01:02:31.354Z,44.3
2023-03-02T01:03:35.196Z,44.3
2023-03-02T01:04:47.987Z,44.3
2023-03-02T01:06:01.580Z,44.3
2023-03-02T01:07:14.371Z,44.3
2023-03-02T01:08:18.086Z,44.3
2023-03-02T01:09:30.770Z,44.3
2023-03-02T01:10:44.132Z,44.3
2023-03-02T01:11:46.891Z,44.3
2023-03-02T01:13:00.601Z,44.3
2023-03-02T01:14:13.295Z,44.3
2023-03-02T01:15:36.583Z,44.3
2023-03-02T01:16:29.511Z,44.3
2023-03-02T01:17:43.121Z,44.3
2023-03-02T01:18:55.830Z,44.3
2023-03-02T01:19:59.568Z,44.3
2023-03-02T01:21:12.290Z,44.2
2023-03-02T01:22:25.581Z,44.2
2023-03-02T01:23:28.327Z,44.2
2023-03-02T01:24:42.067Z,44.2
2023-03-02T01:25:54.747Z,44.2
2023-03-02T01:26:58.133Z,44.2
2023-03-02T01:28:10.861Z,44.2
2023-03-02T01:29:24.565Z,44.3
2023-03-02T01:30:37.245Z,44.2
2023-03-02T01:31:40.638Z,44.2
2023-03-02T01:32:53.399Z,44.2
2023-03-02T01:34:07.106Z,44.2
2023-03-02T01:35:09.988Z,44.2
2023-03-02T01:36:23.589Z,44.2
2023-03-02T01:37:36.297Z,44.2
2023-03-02T01:38:39.763Z,44.2
2023-03-02T01:39:52.684Z,44.2
2023-03-02T01:41:06.098Z,44.2
2023-03-02T01:42:18.985Z,44.2
2023-03-02T01:43:22.637Z,44.2
2023-03-02T01:44:35.363Z,44.2
2023-03-02T01:45:49.123Z,44.2
2023-03-02T01:46:51.971Z,44.2
2023-03-02T01:48:05.592Z,44.2
2023-03-02T01:49:18.273Z,44.2
2023-03-02T01:50:21.671Z,44.2
2023-03-02T01:51:34.367Z,44.2
2023-03-02T01:52:48.070Z,44.2
2023-03-02T01:54:00.903Z,44.2
2023-03-02T01:55:04.577Z,44.2
2023-03-02T01:56:17.316Z,44.2
2023-03-02T01:57:30.581Z,44.2
2023-03-02T01:58:33.333Z,44.2
2023-03-02T01:59:47.097Z,44.2
2023-03-02T02:00:59.846Z,44.2
2023-03-02T02:02:03.610Z,44.2
2023-03-02T02:03:16.337Z,44.2
2023-03-02T02:04:30.081Z,44.1
2023-03-02T02:05:32.857Z,44.1
2023-03-02T02:06:47.375Z,44.2
2023-03-02T02:08:02.502Z,44.2
2023-03-02T02:09:06.380Z,44.2
2023-03-02T02:10:19.096Z,44.1
2023-03-02T02:11:33.590Z,44.1
2023-03-02T02:12:36.355Z,44.1
2023-03-02T02:13:50.087Z,44.1
2023-03-02T02:15:02.884Z,44.1
2023-03-02T02:16:06.770Z,44.1
2023-03-02T02:17:39.470Z,44.1
2023-03-02T02:18:33.085Z,44.1
2023-03-02T02:19:35.819Z,44.1
2023-03-02T02:20:49.100Z,44.1
2023-03-02T02:22:01.765Z,44.0
2023-03-02T02:23:15.226Z,44.1
2023-03-02T02:24:17.979Z,44.0
2023-03-02T02:25:32.245Z,44.0
2023-03-02T02:26:45.046Z,44.0
2023-03-02T02:27:48.734Z,44.0
2023-03-02T02:29:01.543Z,44.0
2023-03-02T02:30:15.103Z,44.0
2023-03-02T02:31:18.041Z,44.0
2023-03-02T02:32:41.635Z,44.0
2023-03-02T02:33:44.538Z,44.1
2023-03-02T02:34:48.170Z,44.0
2023-03-02T02:36:00.924Z,44.0
2023-03-02T02:37:15.338Z,44.0
2023-03-02T02:38:18.064Z,44.0
2023-03-02T02:39:31.638Z,44.0
2023-03-02T02:40:44.353Z,44.0
2023-03-02T02:42:07.584Z,44.0
2023-03-02T02:43:00.413Z,44.0
2023-03-02T02:44:14.156Z,44.0
2023-03-02T02:45:27.013Z,44.0
2023-03-02T02:46:30.934Z,44.0
2023-03-02T02:47:43.899Z,43.9
2023-03-02T02:48:57.612Z,44.0
2023-03-02T02:50:00.417Z,44.0
2023-03-02T02:51:14.112Z,43.9
2023-03-02T02:52:26.852Z,43.9
2023-03-02T02:53:30.643Z,43.9
2023-03-02T02:54:43.354Z,44.0
2023-03-02T02:55:57.126Z,43.9
2023-03-02T02:57:00.041Z,43.9
2023-03-02T02:58:13.640Z,44.0
2023-03-02T02:59:26.459Z,43.9
2023-03-02T03:00:30.225Z,44.0
2023-03-02T03:01:43.030Z,43.9
2023-03-02T03:02:56.617Z,44.0
2023-03-02T03:04:09.385Z,44.0
2023-03-02T03:05:13.104Z,44.0
2023-03-02T03:06:25.823Z,43.9
2023-03-02T03:07:39.179Z,43.9
2023-03-02T03:08:42.154Z,44.0
2023-03-02T03:09:55.705Z,44.0
2023-03-02T03:11:08.543Z,44.0
2023-03-02T03:12:12.137Z,44.0
2023-03-02T03:13:25.014Z,44.0
2023-03-02T03:14:39.109Z,43.9
2023-03-02T03:15:41.850Z,44.0
2023-03-02T03:16:55.688Z,44.0
2023-03-02T03:18:08.506Z,44.0
2023-03-02T03:19:22.110Z,44.0
2023-03-02T03:20:24.927Z,44.0
2023-03-02T03:21:38.600Z,43.9
2023-03-02T03:22:51.327Z,43.9
2023-03-02T03:23:55.114Z,44.0
2023-03-02T03:25:07.805Z,44.0
2023-03-02T03:26:21.111Z,44.0
2023-03-02T03:27:23.862Z,43.9
2023-03-02T03:28:37.603Z,43.9
2023-03-02T03:29:50.300Z,43.9
2023-03-02T03:34:29.974Z,43.9
2023-03-02T03:35:42.731Z,43.9
2023-03-02T03:36:46.146Z,43.9
2023-03-02T03:37:58.870Z,43.9
2023-03-02T03:39:12.117Z,43.9
2023-03-02T03:40:14.872Z,43.9
2023-03-02T03:41:28.608Z,43.8
2023-03-02T03:42:41.324Z,43.8
2023-03-02T03:43:54.671Z,43.8
2023-03-02T03:44:57.543Z,43.9
2023-03-02T03:46:11.233Z,43.8
2023-03-02T03:47:24.068Z,43.8
2023-03-02T03:48:27.640Z,43.8
2023-03-02T03:49:40.375Z,43.8
2023-03-02T03:50:54.124Z,43.8
2023-03-02T03:51:56.927Z,43.8
2023-03-02T03:53:10.622Z,43.8
2023-03-02T03:54:23.540Z,43.8
2023-03-02T03:55:27.136Z,43.8
2023-03-02T03:56:39.910Z,43.8
2023-03-02T03:57:53.601Z,43.8
2023-03-02T03:59:06.400Z,43.8
2023-03-02T04:00:10.129Z,43.8
2023-03-02T04:01:22.952Z,43.9
2023-03-02T04:02:36.613Z,43.9
2023-03-02T04:03:40.865Z,43.8
2023-03-02T04:04:54.619Z,43.9
2023-03-02T04:05:57.411Z,43.9
2023-03-02T04:07:11.160Z,43.9
2023-03-02T04:08:23.927Z,43.8
2023-03-02T04:09:37.611Z,43.8
2023-03-02T04:10:40.395Z,43.9
2023-03-02T04:11:54.121Z,43.8
2023-03-02T04:13:06.861Z,43.9
2023-03-02T04:14:10.622Z,43.8
2023-03-02T04:15:23.373Z,43.8
2023-03-02T04:16:37.132Z,43.8
2023-03-02T04:17:39.902Z,43.8
2023-03-02T04:18:53.642Z,43.9
2023-03-02T04:20:06.385Z,43.8
2023-03-02T04:21:20.141Z,43.8
2023-03-02T04:22:22.898Z,43.8
2023-03-02T04:23:36.637Z,43.8
2023-03-02T04:24:49.353Z,43.9
2023-03-02T04:25:53.121Z,43.8
2023-03-02T04:27:06.017Z,43.8
2023-03-02T04:28:19.631Z,43.8
2023-03-02T04:29:22.400Z,43.8
2023-03-02T04:30:36.117Z,43.8
2023-03-02T04:31:48.846Z,43.8
2023-03-02T04:32:52.650Z,43.8
2023-03-02T04:34:05.411Z,43.8
2023-03-02T04:35:18.616Z,43.8
2023-03-02T04:37:54.322Z,43.8
2023-03-02T04:38:47.310Z,43.8
2023-03-02T04:40:00.815Z,43.8
2023-03-02T04:41:03.617Z,43.8
2023-03-02T04:42:17.314Z,43.8
2023-03-02T04:43:30.076Z,43.8
2023-03-02T04:44:33.774Z,43.8
2023-03-02T04:45:46.531Z,43.8
2023-03-02T04:47:00.371Z,43.7
2023-03-02T04:48:03.283Z,43.7
2023-03-02T04:49:16.798Z,43.7
2023-03-02T04:50:29.588Z,43.7
2023-03-02T04:51:43.302Z,43.7
2023-03-02T04:52:46.129Z,43.8
2023-03-02T04:54:13.481Z,43.8
2023-03-02T04:55:06.340Z,43.7
2023-03-02T04:56:20.025Z,43.7
2023-03-02T04:57:32.798Z,43.7
2023-03-02T04:58:36.519Z,43.7
2023-03-02T04:59:49.300Z,43.7
2023-03-02T05:01:03.039Z,43.8
2023-03-02T05:02:05.940Z,43.7
2023-03-02T05:03:19.554Z,43.7
2023-03-02T05:04:32.386Z,43.7
2023-03-02T05:05:36.063Z,43.7
2023-03-02T05:06:48.835Z,43.7
2023-03-02T05:08:02.535Z,43.7
2023-03-02T05:09:05.404Z,43.6
2023-03-02T05:10:19.053Z,43.7
2023-03-02T05:11:32.890Z,43.7
2023-03-02T05:12:36.839Z,43.6
2023-03-02T05:13:50.169Z,43.7
2023-03-02T05:15:05.530Z,43.7
2023-03-02T05:16:08.479Z,43.6
2023-03-02T05:17:22.047Z,43.7
2023-03-02T05:18:24.843Z,43.7
2023-03-02T05:19:38.551Z,43.7
2023-03-02T05:20:51.445Z,43.7
2023-03-02T05:22:05.040Z,43.7
2023-03-02T05:23:07.880Z,43.7
2023-03-02T05:24:21.564Z,43.9
2023-03-02T05:25:44.414Z,43.9
2023-03-02T05:26:38.039Z,43.9
2023-03-02T05:27:50.856Z,43.8
2023-03-02T05:29:04.556Z,43.9
2023-03-02T05:30:07.691Z,43.8
2023-03-02T05:31:21.152Z,43.9
2023-03-02T05:32:35.595Z,43.9
2023-03-02T05:33:39.550Z,43.9
2023-03-02T05:34:52.329Z,43.9
2023-03-02T05:36:06.117Z,43.9
2023-03-02T05:37:09.034Z,43.9
2023-03-02T05:38:22.585Z,44.0
2023-03-02T05:39:35.367Z,43.9
2023-03-02T05:40:39.086Z,44.0
2023-03-02T05:41:51.867Z,44.0
2023-03-02T05:43:05.620Z,44.0
2023-03-02T05:44:08.468Z,44.0
2023-03-02T05:45:32.039Z,44.0
2023-03-02T05:46:35.077Z,44.0
2023-03-02T05:47:39.049Z,44.1
2023-03-02T05:48:51.840Z,44.0
2023-03-02T05:50:05.573Z,44.0
2023-03-02T05:51:08.383Z,44.0
2023-03-02T05:52:22.062Z,44.3
2023-03-02T05:53:34.847Z,44.3
2023-03-02T05:54:38.535Z,44.2
2023-03-02T05:56:00.818Z,44.4
2023-03-02T05:57:04.565Z,44.3
2023-03-02T05:58:17.210Z,44.2
2023-03-02T05:59:20.540Z,44.0
2023-03-02T06:00:33.170Z,43.7
2023-03-02T06:01:46.556Z,43.6
2023-03-02T06:02:49.362Z,43.4
2023-03-02T06:04:03.077Z,43.2
2023-03-02T06:05:25.201Z,43.0
2023-03-02T06:06:28.554Z,42.8
2023-03-02T06:07:31.179Z,42.5
2023-03-02T06:08:44.569Z,42.3
2023-03-02T06:09:58.526Z,42.0
2023-03-02T06:11:02.126Z,41.8
2023-03-02T06:12:14.649Z,41.6
2023-03-02T06:13:28.141Z,41.6
2023-03-02T06:14:31.018Z,41.2
2023-03-02T06:15:44.599Z,39.9
2023-03-02T06:16:57.111Z,38.5
2023-03-02T06:18:01.944Z,37.1
2023-03-02T06:19:14.413Z,35.5
2023-03-02T06:20:27.545Z,34.2
2023-03-02T06:21:30.325Z,32.6
2023-03-02T06:22:43.559Z,31.6
2023-03-02T06:27:38.382Z,29.6
2023-03-02T06:28:31.814Z,29.0
2023-03-02T06:29:46.094Z,28.8
2023-03-02T06:30:48.703Z,29.2
2023-03-02T06:32:02.264Z,29.7
2023-03-02T06:33:14.995Z,30.0
2023-03-02T06:34:29.064Z,30.3
2023-03-02T06:35:31.913Z,30.7
2023-03-02T06:36:45.578Z,31.4
2023-03-02T06:37:58.118Z,31.8
2023-03-02T06:39:01.632Z,32.3
2023-03-02T06:40:14.342Z,32.5
2023-03-02T06:41:28.056Z,32.8
2023-03-02T06:42:30.645Z,33.1
2023-03-02T06:43:44.161Z,33.1
2023-03-02T06:44:56.791Z,33.3
2023-03-02T06:46:00.134Z,33.5
2023-03-02T06:47:12.760Z,33.6
2023-03-02T06:48:35.597Z,33.6
2023-03-02T06:49:38.173Z,33.8
2023-03-02T06:50:41.578Z,33.8
2023-03-02T06:51:54.078Z,33.8
2023-03-02T06:53:07.870Z,34.1
2023-03-02T06:54:10.400Z,34.3
2023-03-02T06:55:23.574Z,34.4
2023-03-02T06:56:36.040Z,34.5
2023-03-02T06:57:49.059Z,34.6
2023-03-02T06:58:51.613Z,34.7
2023-03-02T07:00:05.059Z,34.7
2023-03-02T07:01:17.548Z,34.7
2023-03-02T07:02:21.095Z,34.7
2023-03-02T07:03:33.351Z,34.7
2023-03-02T07:04:46.605Z,34.6
2023-03-02T07:05:49.244Z,34.6
2023-03-02T07:07:02.596Z,34.7
2023-03-02T07:08:15.021Z,34.7
2023-03-02T07:09:28.095Z,34.8
2023-03-02T07:10:30.598Z,34.8
2023-03-02T07:11:45.524Z,34.8
2023-03-02T07:12:48.304Z,34.8
2023-03-02T07:14:01.578Z,34.8
2023-03-02T07:15:13.991Z,34.7
2023-03-02T07:16:27.145Z,34.8
2023-03-02T07:17:29.686Z,34.8
2023-03-02T07:18:43.083Z,34.7
2023-03-02T07:19:56.456Z,34.8
2023-03-02T07:20:59.583Z,34.8
2023-03-02T07:22:11.973Z,34.8
2023-03-02T07:23:25.111Z,35.0
2023-03-02T07:24:57.305Z,35.0
2023-03-02T07:25:41.107Z,35.1
2023-03-02T07:26:53.431Z,35.1
2023-03-02T07:28:06.579Z,35.0
2023-03-02T07:29:09.014Z,35.1
2023-03-02T07:30:22.130Z,35.1
2023-03-02T07:31:44.348Z,35.0
2023-03-02T07:32:47.585Z,35.2
2023-03-02T07:33:50.011Z,35.3
2023-03-02T07:35:03.095Z,35.3
2023-03-02T07:36:15.426Z,35.3
2023-03-02T07:37:19.105Z,35.2
2023-03-02T07:38:31.469Z,35.3
2023-03-02T07:39:44.588Z,35.3
2023-03-02T07:40:47.040Z,35.3
2023-03-02T07:42:00.103Z,35.2
2023-03-02T07:43:12.446Z,35.2
2023-03-02T07:44:25.651Z,35.3
2023-03-02T07:45:28.313Z,35.4
2023-03-02T07:46:41.657Z,35.6
2023-03-02T07:47:54.140Z,35.3
2023-03-02T07:48:57.622Z,35.3
2023-03-02T07:50:09.932Z,35.3
2023-03-02T07:51:23.128Z,35.4
2023-03-02T07:52:55.025Z,35.4
2023-03-02T07:53:38.596Z,35.3
2023-03-02T07:54:50.937Z,35.5
2023-03-02T07:57:20.988Z,35.5
2023-03-02T07:58:23.408Z,35.8
2023-03-02T07:59:26.607Z,35.6
2023-03-02T08:00:40.688Z,35.8
2023-03-02T08:01:55.174Z,35.5
2023-03-02T08:02:57.642Z,35.5
2023-03-02T08:04:11.101Z,35.6
2023-03-02T08:05:23.447Z,35.4
2023-03-02T08:06:26.628Z,35.7
2023-03-02T08:07:39.081Z,35.6
2023-03-02T08:08:52.087Z,35.7
2023-03-02T08:10:04.421Z,35.6
2023-03-02T08:11:07.592Z,35.4
2023-03-02T08:12:19.871Z,35.6
2023-03-02T08:13:33.119Z,35.7
2023-03-02T08:14:37.002Z,35.5
2023-03-02T08:15:50.150Z,35.3
2023-03-02T08:17:02.584Z,35.3
2023-03-02T08:18:05.624Z,35.4
2023-03-02T08:19:17.927Z,35.4
2023-03-02T08:21:00.610Z,35.4
2023-03-02T08:24:00.579Z,35.5
2023-03-02T08:25:12.982Z,35.7
2023-03-02T08:26:17.577Z,35.6
2023-03-02T08:27:30.054Z,35.4
2023-03-02T08:28:43.113Z,35.5
2023-03-02T08:30:05.051Z,35.2
2023-03-02T08:30:58.605Z,35.2
2023-03-02T08:32:11.116Z,35.3
2023-03-02T08:33:14.236Z,35.4
2023-03-02T08:34:26.505Z,35.3
2023-03-02T08:35:40.144Z,35.4
2023-03-02T08:36:42.614Z,35.3
2023-03-02T08:37:55.596Z,35.4
2023-03-02T08:39:07.843Z,35.4
2023-03-02T08:40:31.153Z,35.4
2023-03-02T08:41:23.679Z,35.4
2023-03-02T08:42:36.611Z,35.4
2023-03-02T08:43:48.843Z,35.4
2023-03-02T08:45:12.647Z,35.3
2023-03-02T08:46:05.185Z,35.3
2023-03-02T08:47:18.160Z,35.3
2023-03-02T08:48:30.480Z,35.3
2023-03-02T08:49:33.667Z,35.4
2023-03-02T08:50:45.956Z,35.3
2023-03-02T08:51:59.149Z,35.3
2023-03-02T08:53:11.466Z,35.3
2023-03-02T08:54:14.600Z,35.1
2023-03-02T08:55:26.988Z,35.1
2023-03-02T08:56:40.119Z,35.4
2023-03-02T08:57:42.487Z,35.3
2023-03-02T08:58:55.664Z,35.2
2023-03-02T09:00:07.882Z,35.4
2023-03-02T09:01:40.749Z,35.2
2023-03-02T09:02:23.437Z,35.2
2023-03-02T09:03:35.632Z,35.2
2023-03-02T09:04:49.222Z,35.1
2023-03-02T09:06:01.550Z,35.2
2023-03-02T09:07:04.626Z,35.2
2023-03-02T09:08:17.129Z,35.3
2023-03-02T09:09:30.148Z,35.3
2023-03-02T09:10:32.471Z,35.2
2023-03-02T09:11:45.612Z,35.1
2023-03-02T09:12:57.846Z,35.1
2023-03-02T09:14:01.197Z,35.0
2023-03-02T09:15:13.680Z,35.1
2023-03-02T09:16:27.242Z,35.2
2023-03-02T09:17:29.641Z,35.1
2023-03-02T09:18:42.660Z,35.2
2023-03-02T09:19:54.923Z,35.1
2023-03-02T09:21:08.161Z,35.1
2023-03-02T09:22:10.798Z,35.2
2023-03-02T09:23:23.667Z,35.1
2023-03-02T09:24:35.945Z,35.1
2023-03-02T09:25:39.135Z,35.1
2023-03-02T09:27:01.062Z,35.2
2023-03-02T09:28:14.154Z,35.2
2023-03-02T09:29:16.443Z,35.2
2023-03-02T09:30:20.213Z,35.1
2023-03-02T09:31:32.985Z,35.2
2023-03-02T09:32:46.387Z,35.0
2023-03-02T09:33:48.790Z,34.9
2023-03-02T09:35:02.167Z,35.0
2023-03-02T09:36:14.524Z,34.9
2023-03-02T09:37:17.666Z,34.9
2023-03-02T09:38:29.823Z,35.0
2023-03-02T09:39:42.784Z,35.0
2023-03-02T09:40:55.090Z,35.0
2023-03-02T09:42:07.633Z,35.0
2023-03-02T09:43:09.989Z,34.7
2023-03-02T09:44:23.654Z,34.8
2023-03-02T09:45:26.157Z,34.9
2023-03-02T09:46:39.156Z,34.8
2023-03-02T09:47:51.381Z,34.9
2023-03-02T09:49:04.251Z,34.8
2023-03-02T09:50:06.590Z,34.7
2023-03-02T09:51:19.649Z,34.8
2023-03-02T09:52:31.796Z,34.8
2023-03-02T09:53:34.658Z,34.9
2023-03-02T09:54:46.813Z,34.9
2023-03-02T09:55:59.643Z,35.0
2023-03-02T09:57:01.903Z,34.8
2023-03-02T09:58:15.161Z,34.7
2023-03-02T09:59:27.399Z,34.9
2023-03-02T10:00:40.638Z,35.0
2023-03-02T10:01:42.965Z,34.8
2023-03-02T10:03:00.513Z,34.8
2023-03-02T10:04:05.103Z,34.7
2023-03-02T10:05:18.234Z,34.7
2023-03-02T10:06:20.505Z,34.8
2023-03-02T10:07:33.650Z,34.8
2023-03-02T10:08:45.775Z,34.8
2023-03-02T10:09:58.791Z,34.8
2023-03-02T10:11:01.058Z,34.8
2023-03-02T10:12:14.314Z,34.7
2023-03-02T10:13:28.026Z,34.7
2023-03-02T10:14:31.476Z,34.6
2023-03-02T10:15:45.047Z,34.7
2023-03-02T10:16:58.164Z,34.7
2023-03-02T10:18:01.555Z,34.8
2023-03-02T10:19:16.670Z,34.7
2023-03-02T10:20:18.892Z,34.6
2023-03-02T10:21:31.649Z,34.8
2023-03-02T10:22:43.788Z,34.7
2023-03-02T10:23:56.674Z,34.7
2023-03-02T10:24:58.905Z,34.6
2023-03-02T10:26:11.673Z,34.6
2023-03-02T10:27:23.855Z,34.8
2023-03-02T10:28:36.673Z,34.8
2023-03-02T10:29:38.951Z,34.6
2023-03-02T10:31:02.969Z,34.6
2023-03-02T10:32:17.098Z,34.7
2023-03-02T10:33:10.676Z,34.6
2023-03-02T10:34:22.783Z,34.7
2023-03-02T10:35:25.679Z,34.7
2023-03-02T10:36:38.128Z,34.6
2023-03-02T10:38:00.655Z,34.5
2023-03-02T10:39:02.946Z,34.6
2023-03-02T10:40:06.184Z,34.5
2023-03-02T10:41:18.565Z,34.4
2023-03-02T10:42:31.705Z,34.5
2023-03-02T10:43:34.024Z,34.4
2023-03-02T10:44:48.216Z,34.3
2023-03-02T10:46:00.505Z,34.3
2023-03-02T10:47:13.702Z,34.4
2023-03-02T10:48:25.479Z,34.4
2023-03-02T10:49:28.733Z,34.5
2023-03-02T10:50:40.928Z,34.3
2023-03-02T10:51:44.221Z,34.4
2023-03-02T10:53:00.771Z,34.3
2023-03-02T10:54:05.181Z,34.2
2023-03-02T10:55:17.346Z,34.1
2023-03-02T10:56:32.025Z,34.2
2023-03-02T10:57:34.693Z,34.3
2023-03-02T10:58:47.675Z,34.2
2023-03-02T10:59:59.834Z,34.1
2023-03-02T11:01:02.701Z,34.3
2023-03-02T11:02:14.881Z,34.6
2023-03-02T11:03:27.657Z,34.2
2023-03-02T11:04:30.005Z,34.3
2023-03-02T11:05:43.219Z,34.1
2023-03-02T11:07:14.593Z,34.1
2023-03-02T11:08:07.691Z,34.3
2023-03-02T11:09:09.954Z,34.2
2023-03-02T11:10:22.714Z,34.0
2023-03-02T11:11:35.426Z,34.1
2023-03-02T11:13:07.703Z,34.3
2023-03-02T11:13:50.239Z,33.9
2023-03-02T11:15:02.391Z,33.8
2023-03-02T11:24:01.509Z,33.9
2023-03-02T11:24:04.652Z,32.3
2023-03-02T11:24:17.550Z,32.5
2023-03-02T11:25:29.446Z,32.1
2023-03-02T11:26:42.197Z,32.0
2023-03-02T11:27:54.187Z,31.8
2023-03-02T11:28:57.177Z,31.7
2023-03-02T11:30:09.210Z,31.6
2023-03-02T11:31:22.310Z,31.4
2023-03-02T11:32:24.587Z,31.5
2023-03-02T11:33:37.791Z,31.4
2023-03-02T11:34:49.915Z,31.3
2023-03-02T11:36:03.310Z,31.3
2023-03-02T11:37:05.605Z,31.3
2023-03-02T11:38:18.680Z,31.4
2023-03-02T11:39:30.653Z,31.2
2023-03-02T11:40:33.671Z,31.1
2023-03-02T11:41:45.606Z,31.0
2023-03-02T11:42:58.741Z,31.1
2023-03-02T11:44:00.975Z,31.4
2023-03-02T11:45:13.935Z,31.0
2023-03-02T11:46:26.673Z,31.0
2023-03-02T11:47:39.702Z,30.9
2023-03-02T11:48:41.838Z,31.0
2023-03-02T11:50:14.181Z,30.9
2023-03-02T11:51:06.518Z,30.9
2023-03-02T11:52:08.748Z,30.8
2023-03-02T11:53:21.767Z,30.7
2023-03-02T11:54:34.007Z,30.8
2023-03-02T11:55:46.681Z,30.7
2023-03-02T11:56:48.801Z,30.7
2023-03-02T11:59:13.525Z,30.6
2023-03-02T12:00:26.265Z,30.6
2023-03-02T12:01:28.491Z,30.8
2023-03-02T12:02:41.223Z,30.6
2023-03-02T12:03:53.284Z,30.6
2023-03-02T12:04:56.698Z,30.8
2023-03-02T12:06:08.783Z,30.5
2023-03-02T12:07:21.712Z,30.5
2023-03-02T12:08:33.678Z,30.4
2023-03-02T12:09:36.699Z,30.6
2023-03-02T12:10:48.655Z,30.5
2023-03-02T12:12:01.705Z,30.4
2023-03-02T12:13:03.833Z,30.4
2023-03-02T12:14:16.698Z,30.4
2023-03-02T12:15:28.712Z,30.3
2023-03-02T12:16:41.748Z,30.4
2023-03-02T12:17:44.100Z,30.4
2023-03-02T12:18:57.219Z,30.2
2023-03-02T12:20:10.023Z,30.1
2023-03-02T12:21:13.212Z,30.5
2023-03-02T12:22:25.358Z,30.7
2023-03-02T12:23:58.007Z,30.8
2023-03-02T12:24:50.066Z,30.8
2023-03-02T12:26:12.293Z,31.1
2023-03-02T12:27:04.628Z,31.2
2023-03-02T12:28:17.766Z,31.1
2023-03-02T12:29:20.045Z,31.3
2023-03-02T12:30:33.233Z,31.3
2023-03-02T12:31:45.347Z,31.3
2023-03-02T12:33:08.217Z,31.3
2023-03-02T12:34:00.518Z,31.4
2023-03-02T12:35:13.203Z,31.5
2023-03-02T12:36:25.262Z,31.5
2023-03-02T12:37:38.233Z,31.7
2023-03-02T12:38:40.679Z,31.5
2023-03-02T12:39:53.703Z,31.5
2023-03-02T12:41:05.799Z,31.5
2023-03-02T12:42:08.801Z,31.7
2023-03-02T12:43:21.104Z,31.8
2023-03-02T12:44:34.253Z,31.6
2023-03-02T12:45:36.414Z,31.8
2023-03-02T12:48:15.754Z,32.0
2023-03-02T12:49:09.371Z,32.0
2023-03-02T12:50:22.772Z,31.9
2023-03-02T12:51:25.109Z,32.0
2023-03-02T12:52:38.363Z,32.0
2023-03-02T12:54:09.976Z,32.0
2023-03-02T12:55:03.324Z,32.1
2023-03-02T12:56:05.586Z,32.1
2023-03-02T12:57:18.340Z,32.2
2023-03-02T12:58:50.017Z,32.0
2023-03-02T12:59:43.302Z,32.2
2023-03-02T13:00:45.488Z,32.1
2023-03-02T13:01:58.305Z,32.3
2023-03-02T13:03:29.608Z,32.2
2023-03-02T13:04:12.866Z,32.1
2023-03-02T13:05:24.973Z,32.3
2023-03-02T13:06:37.804Z,32.5
2023-03-02T13:07:49.880Z,32.3
2023-03-02T13:09:12.303Z,32.5
2023-03-02T13:10:04.759Z,32.2
2023-03-02T13:11:17.830Z,31.8
2023-03-02T13:12:19.981Z,31.2
2023-03-02T13:13:32.906Z,31.0
2023-03-02T13:15:04.690Z,30.7
2023-03-02T13:15:57.818Z,30.4
2023-03-02T13:17:00.146Z,30.3
2023-03-02T13:18:12.803Z,30.1
2023-03-02T13:19:24.857Z,30.1
2023-03-02T13:20:37.798Z,30.2
2023-03-02T13:21:40.063Z,30.2
2023-03-02T13:23:02.877Z,30.2
2023-03-02T13:24:24.656Z,30.3
2023-03-02T13:25:08.340Z,30.3
2023-03-02T13:26:20.369Z,30.1
2023-03-02T13:27:33.407Z,30.3
2023-03-02T13:28:45.569Z,30.4
2023-03-02T13:29:48.290Z,30.4
2023-03-02T13:31:10.220Z,30.5
2023-03-02T13:32:52.908Z,30.5
2023-03-02T13:33:15.818Z,30.4
2023-03-02T13:34:28.116Z,30.4
2023-03-02T13:35:40.922Z,30.3
2023-03-02T13:36:53.168Z,30.3
2023-03-02T13:37:56.326Z,30.4
2023-03-02T13:39:08.455Z,30.4
2023-03-02T13:40:21.301Z,30.6
2023-03-02T13:41:23.487Z,30.2
2023-03-02T13:42:36.310Z,30.5
2023-03-02T13:43:48.348Z,30.4
2023-03-02T13:45:01.326Z,30.5
2023-03-02T13:46:03.544Z,30.5
2023-03-02T13:47:16.413Z,30.5
2023-03-02T13:48:28.635Z,30.6
2023-03-02T13:49:42.118Z,30.5
2023-03-02T13:50:44.317Z,30.6
2023-03-02T13:51:57.410Z,30.5
2023-03-02T13:53:09.400Z,30.6
2023-03-02T13:54:12.314Z,30.5
2023-03-02T13:55:24.317Z,30.4
2023-03-02T13:56:37.365Z,30.2
2023-03-02T13:57:50.376Z,30.2
2023-03-02T13:58:53.319Z,30.0
2023-03-02T14:00:05.345Z,29.1
2023-03-02T14:01:18.387Z,27.9
2023-03-02T14:02:20.655Z,29.4
2023-03-02T14:03:33.628Z,29.9
2023-03-02T14:04:45.894Z,29.7
2023-03-02T14:05:48.854Z,29.8
2023-03-02T14:07:00.977Z,30.1
2023-03-02T14:08:13.845Z,30.1
2023-03-02T14:09:25.856Z,29.7
2023-03-02T14:10:28.834Z,29.5
2023-03-02T14:11:40.799Z,29.4
2023-03-02T14:12:53.323Z,29.2
2023-03-02T14:14:05.294Z,29.0
2023-03-02T14:15:08.412Z,29.0
2023-03-02T14:16:20.440Z,28.9
2023-03-02T14:17:33.324Z,28.8
2023-03-02T14:18:35.385Z,28.9
2023-03-02T14:19:48.372Z,28.7
2023-03-02T14:21:00.374Z,28.5
2023-03-02T14:22:13.338Z,28.4
2023-03-02T14:23:15.427Z,28.4
2023-03-02T14:24:28.338Z,28.3
2023-03-02T14:25:40.302Z,28.1
2023-03-02T14:26:52.883Z,28.2
2023-03-02T14:27:55.035Z,28.1
2023-03-02T14:29:07.861Z,28.1
2023-03-02T14:30:19.838Z,27.9
2023-03-02T14:31:22.892Z,27.8
2023-03-02T14:32:34.961Z,27.8
2023-03-02T14:33:47.840Z,27.8
2023-03-02T14:34:59.754Z,27.9
2023-03-02T14:36:02.874Z,27.8
2023-03-02T14:37:14.904Z,27.9
2023-03-02T14:38:27.868Z,27.7
2023-03-02T14:39:30.180Z,27.8
2023-03-02T14:40:43.011Z,27.6
2023-03-02T14:41:55.573Z,27.7
2023-03-02T14:43:08.854Z,27.8
2023-03-02T14:44:10.988Z,27.8
2023-03-02T14:45:23.874Z,28.0
2023-03-02T14:46:45.901Z,28.2
2023-03-02T14:47:38.864Z,28.3
2023-03-02T14:48:50.850Z,28.5
2023-03-02T14:50:14.106Z,28.6
2023-03-02T14:51:06.425Z,28.7
2023-03-02T14:52:19.391Z,28.8
2023-03-02T14:53:41.234Z,28.8
2023-03-02T14:54:53.887Z,28.8
2023-03-02T14:56:15.562Z,28.8
2023-03-02T14:56:58.856Z,28.8
2023-03-02T14:58:10.898Z,28.9
2023-03-02T14:59:23.881Z,28.9
2023-03-02T15:00:25.993Z,28.8
2023-03-02T15:01:38.987Z,28.9
2023-03-02T15:02:51.233Z,28.7
2023-03-02T15:03:54.422Z,28.9
2023-03-02T15:05:06.528Z,29.0
2023-03-02T15:06:19.411Z,29.1
2023-03-02T15:08:38.195Z,29.1
2023-03-02T15:09:50.236Z,28.7
2023-03-02T15:10:53.340Z,28.3
2023-03-02T15:12:05.420Z,29.0
2023-03-02T15:13:18.402Z,28.9
2023-03-02T15:14:20.636Z,29.1
2023-03-02T15:15:33.376Z,28.9
2023-03-02T15:16:45.510Z,28.8
2023-03-02T15:17:58.400Z,28.9
2023-03-02T15:19:00.867Z,28.9
2023-03-02T15:20:13.867Z,29.0
2023-03-02T15:21:25.962Z,29.1
2023-03-02T15:22:28.848Z,29.1
2023-03-02T15:23:40.941Z,29.1
2023-03-02T15:24:53.874Z,29.4
2023-03-02T15:26:05.897Z,29.5
2023-03-02T15:27:09.394Z,29.5
2023-03-02T15:28:21.509Z,29.5
2023-03-02T15:29:34.355Z,29.5
2023-03-02T15:30:36.517Z,29.5
2023-03-02T15:31:49.434Z,29.5
2023-03-02T15:33:01.571Z,29.5
2023-03-02T15:34:14.373Z,29.6
2023-03-02T15:35:16.547Z,29.6
2023-03-02T15:36:29.399Z,29.6
2023-03-02T15:37:41.491Z,29.6
2023-03-02T15:39:03.858Z,29.6
2023-03-02T15:39:56.182Z,29.7
2023-03-02T15:41:09.382Z,29.7
2023-03-02T15:42:21.441Z,29.7
2023-03-02T15:43:24.469Z,29.7
2023-03-02T15:44:36.660Z,29.7
2023-03-02T15:45:49.377Z,29.7
2023-03-02T15:46:52.124Z,29.7
2023-03-02T15:48:05.371Z,29.7
2023-03-02T15:49:17.649Z,29.7
2023-03-02T15:50:40.382Z,29.7
2023-03-02T15:51:32.767Z,29.7
2023-03-02T15:52:45.872Z,29.7